createdAt,value
2017-10-15T00:02:22.307Z,75.10
2017-10-15T00:04:49.287Z,74.40
2017-10-15T00:07:15.534Z,74.30
2017-10-15T00:09:42.520Z,74.50
2017-10-15T00:12:08.744Z,74.60
2017-10-15T00:14:34.984Z,74.30
2017-10-15T00:17:01.909Z,74.40
2017-10-15T00:19:28.917Z,74.00
2017-10-15T00:21:55.236Z,74.70
2017-10-15T00:24:21.915Z,73.70
2017-10-15T00:26:48.567Z,73.90
2017-10-15T00:29:16.410Z,73.70
2017-10-15T00:31:43.791Z,73.70
2017-10-15T00:34:11.446Z,73.70
2017-10-15T00:36:38.248Z,73.70
2017-10-15T00:39:04.464Z,74.00
2017-10-15T00:41:31.294Z,73.80
2017-10-15T00:43:58.869Z,73.80
2017-10-15T00:46:25.075Z,73.80
2017-10-15T00:48:52.361Z,73.80
2017-10-15T00:51:19.911Z,74.10
2017-10-15T00:53:47.168Z,74.00
2017-10-15T00:56:13.428Z,73.90
2017-10-15T00:58:39.747Z,73.90
2017-10-15T01:01:05.966Z,73.80
2017-10-15T01:03:32.182Z,73.80
2017-10-15T01:05:59.407Z,74.10
2017-10-15T01:08:26.960Z,74.90
2017-10-15T01:10:53.942Z,74.40
2017-10-15T01:13:21.822Z,74.20
2017-10-15T01:15:48.701Z,74.20
2017-10-15T01:18:16.181Z,74.50
2017-10-15T01:20:43.769Z,74.30
2017-10-15T01:23:10.920Z,74.20
2017-10-15T01:25:37.154Z,74.90
2017-10-15T01:28:03.670Z,75.00
2017-10-15T01:30:29.943Z,74.50
2017-10-15T01:32:56.780Z,76.10
2017-10-15T01:35:23.144Z,74.60
2017-10-15T01:37:50.126Z,74.30
2017-10-15T01:40:16.983Z,74.30
2017-10-15T01:42:43.306Z,74.60
2017-10-15T01:45:10.188Z,74.40
2017-10-15T01:47:36.521Z,74.10
2017-10-15T01:50:03.150Z,74.20
2017-10-15T01:52:29.409Z,74.50
2017-10-15T01:54:56.880Z,74.20
2017-10-15T01:57:25.937Z,74.00
2017-10-15T01:59:53.622Z,74.00
2017-10-15T02:02:21.569Z,74.10
2017-10-15T02:04:49.077Z,74.10
2017-10-15T02:07:17.003Z,74.10
2017-10-15T02:09:43.986Z,74.20
2017-10-15T02:12:10.856Z,74.10
2017-10-15T02:14:37.084Z,73.90
2017-10-15T02:17:04.299Z,74.30
2017-10-15T02:19:30.750Z,73.80
2017-10-15T02:21:57.801Z,73.70
2017-10-15T02:24:24.379Z,73.90
2017-10-15T02:26:51.608Z,74.40
2017-10-15T02:29:17.809Z,74.20
2017-10-15T02:31:44.692Z,74.30
2017-10-15T02:34:10.900Z,74.40
2017-10-15T02:36:38.000Z,74.40
2017-10-15T02:39:05.074Z,74.20
2017-10-15T02:41:31.611Z,74.20
2017-10-15T02:43:58.144Z,75.10
2017-10-15T02:46:25.047Z,74.60
2017-10-15T02:48:52.326Z,74.70
2017-10-15T02:51:19.106Z,74.60
2017-10-15T02:53:47.024Z,74.60
2017-10-15T02:56:13.273Z,75.10
2017-10-15T02:58:40.634Z,74.80
2017-10-15T03:01:08.103Z,74.50
2017-10-15T03:03:35.137Z,74.30
2017-10-15T03:06:01.364Z,74.20
2017-10-15T03:08:28.226Z,74.20
2017-10-15T03:10:55.566Z,74.60
2017-10-15T03:13:21.891Z,74.60
2017-10-15T03:15:49.004Z,74.30
2017-10-15T03:18:15.997Z,74.20
2017-10-15T03:20:42.532Z,74.20
2017-10-15T03:23:08.763Z,76.30
2017-10-15T03:25:35.194Z,75.90
2017-10-15T03:28:02.210Z,75.60
2017-10-15T03:30:28.792Z,75.60
2017-10-15T03:32:55.862Z,75.50
2017-10-15T03:35:22.826Z,75.60
2017-10-15T03:37:50.332Z,75.30
2017-10-15T03:40:16.524Z,75.30
2017-10-15T03:42:42.800Z,75.60
2017-10-15T03:45:09.030Z,75.60
2017-10-15T03:47:35.851Z,75.80
2017-10-15T03:50:02.058Z,75.80
2017-10-15T03:52:28.789Z,76.00
2017-10-15T03:54:55.011Z,76.30
2017-10-15T03:57:21.869Z,75.90
2017-10-15T03:59:48.103Z,75.80
2017-10-15T04:02:14.879Z,76.40
2017-10-15T04:04:41.765Z,77.00
2017-10-15T04:07:09.571Z,76.30
2017-10-15T04:09:36.608Z,76.20
2017-10-15T04:12:04.525Z,76.00
2017-10-15T04:14:32.090Z,76.50
2017-10-15T04:16:59.253Z,76.80
2017-10-15T04:19:25.499Z,76.70
2017-10-15T04:21:52.368Z,77.60
2017-10-15T04:24:18.587Z,76.80
2017-10-15T04:26:45.323Z,76.40
2017-10-15T04:29:12.142Z,76.20
2017-10-15T04:31:38.346Z,76.00
2017-10-15T04:34:05.538Z,76.90
2017-10-15T04:36:31.880Z,76.80
2017-10-15T04:38:58.543Z,76.90
2017-10-15T04:41:25.492Z,78.10
2017-10-15T04:43:52.593Z,78.10
2017-10-15T04:46:18.813Z,77.90
2017-10-15T04:48:45.019Z,77.40
2017-10-15T04:51:12.048Z,76.70
2017-10-15T04:53:38.915Z,76.70
2017-10-15T04:56:21.007Z,76.30
2017-10-15T04:58:47.967Z,76.30
2017-10-15T05:01:14.339Z,76.30
2017-10-15T05:03:41.651Z,76.10
2017-10-15T05:06:09.781Z,75.90
2017-10-15T05:08:37.022Z,76.70
2017-10-15T05:11:03.275Z,76.50
2017-10-15T05:13:29.536Z,77.20
2017-10-15T05:15:56.250Z,78.20
2017-10-15T05:18:23.912Z,77.40
2017-10-15T05:20:51.602Z,77.60
2017-10-15T05:23:18.856Z,77.60
2017-10-15T05:25:45.645Z,78.20
2017-10-15T05:28:12.189Z,78.10
2017-10-15T05:30:39.775Z,77.60
2017-10-15T05:33:07.341Z,77.30
2017-10-15T05:35:33.841Z,77.10
2017-10-15T05:38:00.094Z,77.10
2017-10-15T05:40:27.519Z,76.60
2017-10-15T05:42:55.088Z,76.10
2017-10-15T05:45:21.328Z,76.10
2017-10-15T05:47:49.267Z,76.00
2017-10-15T05:50:16.271Z,75.90
2017-10-15T05:52:42.544Z,75.90
2017-10-15T05:55:10.041Z,75.80
2017-10-15T05:57:37.561Z,76.10
2017-10-15T06:00:03.806Z,76.10
2017-10-15T06:02:30.691Z,76.20
2017-10-15T06:04:56.920Z,76.80
2017-10-15T06:07:23.391Z,76.60
2017-10-15T06:09:49.868Z,76.80
2017-10-15T06:12:16.666Z,76.40
2017-10-15T06:14:43.015Z,76.30
2017-10-15T06:17:10.723Z,76.40
2017-10-15T06:19:38.219Z,76.40
2017-10-15T06:22:04.446Z,76.50
2017-10-15T06:24:30.733Z,76.50
2017-10-15T06:26:57.270Z,76.70
2017-10-15T06:29:25.811Z,77.50
2017-10-15T06:31:52.873Z,77.20
2017-10-15T06:34:19.887Z,78.10
2017-10-15T06:36:46.757Z,77.40
2017-10-15T06:39:14.467Z,77.50
2017-10-15T06:41:41.539Z,77.60
2017-10-15T06:44:08.167Z,77.50
2017-10-15T06:46:35.973Z,78.00
2017-10-15T06:49:03.308Z,78.30
2017-10-15T06:51:30.301Z,78.20
2017-10-15T06:53:56.693Z,78.30
2017-10-15T06:56:23.650Z,79.00
2017-10-15T06:58:51.195Z,79.30
2017-10-15T07:01:17.750Z,79.30
2017-10-15T07:03:44.032Z,79.70
2017-10-15T07:06:10.220Z,80.10
2017-10-15T07:08:36.962Z,80.50
2017-10-15T07:11:03.726Z,80.90
2017-10-15T07:13:30.427Z,81.20
2017-10-15T07:15:56.634Z,80.60
2017-10-15T07:18:23.754Z,81.30
2017-10-15T07:20:50.739Z,80.20
2017-10-15T07:23:17.695Z,80.00
2017-10-15T07:25:44.496Z,79.80
2017-10-15T07:28:10.930Z,79.20
2017-10-15T07:30:38.631Z,78.30
2017-10-15T07:33:04.822Z,78.20
2017-10-15T07:35:31.815Z,78.00
2017-10-15T07:37:58.169Z,77.80
2017-10-15T07:40:24.381Z,77.40
2017-10-15T07:42:51.134Z,77.10
2017-10-15T07:45:18.843Z,78.00
2017-10-15T07:47:45.844Z,76.80
2017-10-15T07:50:13.254Z,76.80
2017-10-15T07:52:40.743Z,76.10
2017-10-15T07:55:07.209Z,76.10
2017-10-15T07:57:34.129Z,75.40
2017-10-15T08:00:00.557Z,74.80
2017-10-15T08:02:27.187Z,75.90
2017-10-15T08:04:53.629Z,75.30
2017-10-15T08:07:19.970Z,74.30
2017-10-15T08:09:46.257Z,74.60
2017-10-15T08:12:12.575Z,74.50
2017-10-15T08:14:39.539Z,71.90
2017-10-15T08:17:05.873Z,71.80
2017-10-15T08:19:32.260Z,71.20
2017-10-15T08:21:58.985Z,70.80
2017-10-15T08:24:25.352Z,70.70
2017-10-15T08:26:52.374Z,70.10
2017-10-15T08:29:18.641Z,70.10
2017-10-15T08:31:45.016Z,69.10
2017-10-15T08:34:11.273Z,68.30
2017-10-15T08:36:37.516Z,69.00
2017-10-15T08:39:04.502Z,68.80
2017-10-15T08:41:31.044Z,68.80
2017-10-15T08:43:57.481Z,66.90
2017-10-15T08:46:24.594Z,68.20
2017-10-15T08:48:51.146Z,68.20
2017-10-15T08:51:18.269Z,69.40
2017-10-15T08:53:44.575Z,69.40
2017-10-15T08:56:11.145Z,67.10
2017-10-15T08:58:38.245Z,68.20
2017-10-15T09:01:04.479Z,68.10
2017-10-15T09:03:30.808Z,66.30
2017-10-15T09:05:58.348Z,66.80
2017-10-15T09:08:26.598Z,67.20
2017-10-15T09:10:53.752Z,65.60
2017-10-15T09:13:20.073Z,65.50
2017-10-15T09:15:46.349Z,66.00
2017-10-15T09:18:13.159Z,66.40
2017-10-15T09:20:39.944Z,66.50
2017-10-15T09:23:06.766Z,65.40
2017-10-15T09:25:33.373Z,67.60
2017-10-15T09:27:59.789Z,65.90
2017-10-15T09:30:26.723Z,64.40
2017-10-15T09:32:55.704Z,65.20
2017-10-15T09:35:23.527Z,65.40
2017-10-15T09:37:50.174Z,65.20
2017-10-15T09:40:17.655Z,66.60
2017-10-15T09:42:45.326Z,67.00
2017-10-15T09:45:12.335Z,67.70
2017-10-15T09:47:39.112Z,67.70
2017-10-15T09:50:06.704Z,65.20
2017-10-15T09:52:32.952Z,65.20
2017-10-15T09:55:00.065Z,65.90
2017-10-15T09:57:26.414Z,65.10
2017-10-15T09:59:53.276Z,65.20
2017-10-15T10:02:19.843Z,64.80
2017-10-15T10:04:47.824Z,64.30
2017-10-15T10:07:15.658Z,63.70
2017-10-15T10:09:42.044Z,63.70
2017-10-15T10:12:09.103Z,63.20
2017-10-15T10:14:35.999Z,63.20
2017-10-15T10:17:03.302Z,64.10
2017-10-15T10:19:30.963Z,63.00
2017-10-15T10:21:59.181Z,62.70
2017-10-15T10:24:25.925Z,62.60
2017-10-15T10:26:53.415Z,64.00
2017-10-15T10:29:19.652Z,64.00
2017-10-15T10:31:45.857Z,62.70
2017-10-15T10:34:13.164Z,63.10
2017-10-15T10:36:39.735Z,63.10
2017-10-15T10:39:06.715Z,61.90
2017-10-15T10:41:33.555Z,61.80
2017-10-15T10:44:00.000Z,61.80
2017-10-15T10:46:27.205Z,61.50
2017-10-15T10:48:54.034Z,61.90
2017-10-15T10:51:22.090Z,61.50
2017-10-15T10:53:48.782Z,61.50
2017-10-15T10:56:16.361Z,60.60
2017-10-15T10:58:43.117Z,60.50
2017-10-15T11:01:10.668Z,61.10
2017-10-15T11:03:37.751Z,60.40
2017-10-15T11:06:03.956Z,60.30
2017-10-15T11:08:30.186Z,60.20
2017-10-15T11:10:57.429Z,60.60
2017-10-15T11:13:26.030Z,59.90
2017-10-15T11:15:52.304Z,59.50
2017-10-15T11:18:19.489Z,58.10
2017-10-15T11:20:46.853Z,58.10
2017-10-15T11:23:13.085Z,58.10
2017-10-15T11:25:39.809Z,58.30
2017-10-15T11:28:06.498Z,58.80
2017-10-15T11:30:34.484Z,57.60
2017-10-15T11:33:01.707Z,56.90
2017-10-15T11:35:28.229Z,56.90
2017-10-15T11:37:55.800Z,57.00
2017-10-15T11:40:22.665Z,57.00
2017-10-15T11:42:49.740Z,56.70
2017-10-15T11:45:16.937Z,56.70
2017-10-15T11:47:44.969Z,55.30
2017-10-15T11:50:11.244Z,55.30
2017-10-15T11:52:38.809Z,54.30
2017-10-15T11:55:07.293Z,55.30
2017-10-15T11:57:34.645Z,53.50
2017-10-15T12:00:01.654Z,53.10
2017-10-15T12:02:27.872Z,53.00
2017-10-15T12:04:54.474Z,54.20
2017-10-15T12:07:22.617Z,54.20
2017-10-15T12:09:49.698Z,53.50
2017-10-15T12:12:17.219Z,53.50
2017-10-15T12:14:44.259Z,53.90
2017-10-15T12:17:11.131Z,53.70
2017-10-15T12:19:38.905Z,54.30
2017-10-15T12:22:06.223Z,53.90
2017-10-15T12:24:33.864Z,53.30
2017-10-15T12:27:01.799Z,53.60
2017-10-15T12:29:28.017Z,53.60
2017-10-15T12:31:55.131Z,52.50
2017-10-15T12:34:22.554Z,53.50
2017-10-15T12:36:49.040Z,52.90
2017-10-15T12:39:16.057Z,52.90
2017-10-15T12:41:42.790Z,52.80
2017-10-15T12:44:09.055Z,51.30
2017-10-15T12:46:36.153Z,51.10
2017-10-15T12:49:02.879Z,51.50
2017-10-15T12:51:30.651Z,51.30
2017-10-15T12:53:57.368Z,51.40
2017-10-15T12:56:23.816Z,50.90
2017-10-15T12:58:50.064Z,51.10
2017-10-15T13:01:16.330Z,51.40
2017-10-15T13:03:43.398Z,50.40
2017-10-15T13:06:10.404Z,50.80
2017-10-15T13:08:36.688Z,50.80
2017-10-15T13:11:03.421Z,50.30
2017-10-15T13:13:31.235Z,49.70
2017-10-15T13:15:57.977Z,49.70
2017-10-15T13:18:25.744Z,50.10
2017-10-15T13:20:52.021Z,50.30
2017-10-15T13:23:18.239Z,49.60
2017-10-15T13:25:44.854Z,50.60
2017-10-15T13:28:11.837Z,50.10
2017-10-15T13:30:38.062Z,50.00
2017-10-15T13:33:04.810Z,50.00
2017-10-15T13:35:32.067Z,49.40
2017-10-15T13:37:59.693Z,49.40
2017-10-15T13:40:26.672Z,49.20
2017-10-15T13:42:53.799Z,49.20
2017-10-15T13:45:20.395Z,49.10
2017-10-15T13:47:47.357Z,49.70
2017-10-15T13:50:14.125Z,49.50
2017-10-15T13:52:40.433Z,50.40
2017-10-15T13:55:07.462Z,49.70
2017-10-15T13:57:33.686Z,49.50
2017-10-15T14:00:00.260Z,49.70
2017-10-15T14:02:27.851Z,49.60
2017-10-15T14:04:54.078Z,49.60
2017-10-15T14:07:20.413Z,49.00
2017-10-15T14:09:47.265Z,48.90
2017-10-15T14:12:14.112Z,48.90
2017-10-15T14:14:40.332Z,48.90
2017-10-15T14:17:06.536Z,48.80
2017-10-15T14:19:33.312Z,48.80
2017-10-15T14:21:59.664Z,49.50
2017-10-15T14:24:27.262Z,49.10
2017-10-15T14:26:54.913Z,49.20
2017-10-15T14:29:21.738Z,49.20
2017-10-15T14:31:48.827Z,49.10
2017-10-15T14:34:15.671Z,49.10
2017-10-15T14:36:42.411Z,49.20
2017-10-15T14:39:08.634Z,49.10
2017-10-15T14:41:35.869Z,49.20
2017-10-15T14:44:02.667Z,49.00
2017-10-15T14:46:30.184Z,49.10
2017-10-15T14:48:57.512Z,49.60
2017-10-15T14:51:24.264Z,49.50
2017-10-15T14:53:51.382Z,49.50
2017-10-15T14:56:18.961Z,49.70
2017-10-15T14:58:45.186Z,49.70
2017-10-15T15:01:12.546Z,50.00
2017-10-15T15:03:42.171Z,50.00
2017-10-15T15:06:08.701Z,50.70
2017-10-15T15:08:36.080Z,50.50
2017-10-15T15:11:02.367Z,50.40
2017-10-15T15:13:28.764Z,50.80
2017-10-15T15:15:55.001Z,52.00
2017-10-15T15:18:21.239Z,52.70
2017-10-15T15:20:48.577Z,51.40
2017-10-15T15:23:16.096Z,52.20
2017-10-15T15:25:42.318Z,52.20
2017-10-15T15:28:08.825Z,51.80
2017-10-15T15:30:35.895Z,53.40
2017-10-15T15:33:03.441Z,52.90
2017-10-15T15:35:29.857Z,53.50
2017-10-15T15:37:56.931Z,54.30
2017-10-15T15:40:23.182Z,54.20
2017-10-15T15:42:49.386Z,54.60
2017-10-15T15:45:15.596Z,55.50
2017-10-15T15:47:42.666Z,55.40
2017-10-15T15:50:08.882Z,56.20
2017-10-15T15:52:35.116Z,56.90
2017-10-15T15:55:01.645Z,56.70
2017-10-15T15:57:27.865Z,57.40
2017-10-15T15:59:55.139Z,57.50
2017-10-15T16:02:21.360Z,57.50
2017-10-15T16:04:47.780Z,58.90
2017-10-15T16:07:14.249Z,57.80
2017-10-15T16:09:40.473Z,59.40
2017-10-15T16:12:06.696Z,59.40
2017-10-15T16:14:32.982Z,60.00
2017-10-15T16:17:00.374Z,60.60
2017-10-15T16:19:27.393Z,59.90
2017-10-15T16:21:56.712Z,59.70
2017-10-15T16:24:23.704Z,61.10
2017-10-15T16:26:50.720Z,63.90
2017-10-15T16:29:17.332Z,63.90
2017-10-15T16:31:45.460Z,64.10
2017-10-15T16:34:11.701Z,64.10
2017-10-15T16:36:38.667Z,64.00
2017-10-15T16:39:06.597Z,66.30
2017-10-15T16:41:35.040Z,67.00
2017-10-15T16:44:01.253Z,67.00
2017-10-15T16:46:28.050Z,66.30
2017-10-15T16:48:55.186Z,67.00
2017-10-15T16:51:23.087Z,67.10
2017-10-15T16:53:50.298Z,64.20
2017-10-15T16:56:17.596Z,63.90
2017-10-15T16:58:45.139Z,64.40
2017-10-15T17:01:12.534Z,66.00
2017-10-15T17:03:40.017Z,65.20
2017-10-15T17:06:08.181Z,66.60
2017-10-15T17:08:34.748Z,66.50
2017-10-15T17:11:02.539Z,66.70
2017-10-15T17:13:29.241Z,66.70
2017-10-15T17:15:55.545Z,65.50
2017-10-15T17:18:21.771Z,67.20
2017-10-15T17:20:48.875Z,65.40
2017-10-15T17:23:15.752Z,67.10
2017-10-15T17:25:41.980Z,68.00
2017-10-15T17:28:09.534Z,67.50
2017-10-15T17:30:38.557Z,67.30
2017-10-15T17:33:05.585Z,66.20
2017-10-15T17:35:31.885Z,66.10
2017-10-15T17:37:59.482Z,68.00
2017-10-15T17:40:25.947Z,67.90
2017-10-15T17:42:53.024Z,69.50
2017-10-15T17:45:20.338Z,70.40
2017-10-15T17:47:46.721Z,70.40
2017-10-15T17:50:13.650Z,70.10
2017-10-15T17:52:41.413Z,68.70
2017-10-15T17:55:08.693Z,68.00
2017-10-15T17:57:35.746Z,68.40
2017-10-15T18:00:02.987Z,68.30
2017-10-15T18:02:30.353Z,69.90
2017-10-15T18:04:56.717Z,70.50
2017-10-15T18:07:24.196Z,72.00
2017-10-15T18:09:51.523Z,70.70
2017-10-15T18:12:19.892Z,69.60
2017-10-15T18:14:46.940Z,70.00
2017-10-15T18:17:13.207Z,70.00
2017-10-15T18:19:40.179Z,71.50
2017-10-15T18:22:06.770Z,70.70
2017-10-15T18:24:34.163Z,71.50
2017-10-15T18:27:01.216Z,72.00
2017-10-15T18:29:27.622Z,71.90
2017-10-15T18:31:53.910Z,73.00
2017-10-15T18:34:20.768Z,73.60
2017-10-15T18:36:49.136Z,72.30
2017-10-15T18:39:17.040Z,71.10
2017-10-15T18:41:44.016Z,72.60
2017-10-15T18:44:10.594Z,72.60
2017-10-15T18:46:36.990Z,72.40
2017-10-15T18:49:03.263Z,72.90
2017-10-15T18:51:29.531Z,74.00
2017-10-15T18:53:55.801Z,73.40
2017-10-15T18:56:22.103Z,73.40
2017-10-15T18:58:49.344Z,74.70
2017-10-15T19:01:16.455Z,73.90
2017-10-15T19:03:43.053Z,74.90
2017-10-15T19:06:09.825Z,73.10
2017-10-15T19:08:36.133Z,74.90
2017-10-15T19:11:02.464Z,74.80
2017-10-15T19:13:29.259Z,75.30
2017-10-15T19:15:55.726Z,75.90
2017-10-15T19:18:23.550Z,73.50
2017-10-15T19:20:51.087Z,74.80
2017-10-15T19:23:17.870Z,74.70
2017-10-15T19:25:44.123Z,74.10
2017-10-15T19:28:10.904Z,75.10
2017-10-15T19:30:37.139Z,75.20
2017-10-15T19:33:04.335Z,75.10
2017-10-15T19:35:30.729Z,75.00
2017-10-15T19:37:57.976Z,76.20
2017-10-15T19:40:24.979Z,76.10
2017-10-15T19:42:51.743Z,76.00
2017-10-15T19:45:18.217Z,75.80
2017-10-15T19:47:45.631Z,75.30
2017-10-15T19:50:12.057Z,75.70
2017-10-15T19:52:38.267Z,77.00
2017-10-15T19:55:04.790Z,76.80
2017-10-15T19:57:33.565Z,77.80
2017-10-15T20:19:30.624Z,77.90
2017-10-15T20:21:57.071Z,76.50
2017-10-15T20:24:24.549Z,76.80
2017-10-15T20:26:53.026Z,76.10
2017-10-15T20:29:20.320Z,76.00
2017-10-15T20:31:46.519Z,75.40
2017-10-15T20:34:12.788Z,74.80
2017-10-15T20:36:39.720Z,75.90
2017-10-15T20:39:06.147Z,75.80
2017-10-15T20:41:33.144Z,74.60
2017-10-15T20:43:59.821Z,74.60
2017-10-15T20:46:26.309Z,74.50
2017-10-15T20:48:53.921Z,75.50
2017-10-15T20:51:20.163Z,75.10
2017-10-15T20:53:46.650Z,75.80
2017-10-15T20:56:13.963Z,76.20
2017-10-15T20:58:40.991Z,74.00
2017-10-15T21:01:07.379Z,73.90
2017-10-15T21:03:33.628Z,73.70
2017-10-15T21:05:59.980Z,73.40
2017-10-15T21:08:26.948Z,75.10
2017-10-15T21:10:53.912Z,75.40
2017-10-15T21:13:20.221Z,75.30
2017-10-15T21:15:47.902Z,74.60
2017-10-15T21:18:15.028Z,74.50
2017-10-15T21:20:42.043Z,73.30
2017-10-15T21:23:08.361Z,73.30
2017-10-15T21:25:36.467Z,72.80
2017-10-15T21:28:05.247Z,72.70
2017-10-15T21:30:32.104Z,72.40
2017-10-15T21:32:59.193Z,72.40
2017-10-15T21:35:27.212Z,72.70
2017-10-15T21:37:53.420Z,72.50
2017-10-15T21:40:20.298Z,73.00
2017-10-15T21:42:49.364Z,72.60
2017-10-15T21:45:15.651Z,72.60
2017-10-15T21:47:41.881Z,72.60
2017-10-15T21:50:08.095Z,73.00
2017-10-15T21:52:34.384Z,73.40
2017-10-15T21:55:01.250Z,73.30
2017-10-15T21:57:28.336Z,73.10
2017-10-15T21:59:55.483Z,73.10
2017-10-15T22:02:22.251Z,72.90
2017-10-15T22:04:48.491Z,72.80
2017-10-15T22:07:14.716Z,72.70
2017-10-15T22:09:41.592Z,72.60
2017-10-15T22:12:09.273Z,72.70
2017-10-15T22:14:35.901Z,72.60
2017-10-15T22:17:03.904Z,72.40
2017-10-15T22:19:30.427Z,72.30
2017-10-15T22:22:02.978Z,72.70
2017-10-15T22:24:30.712Z,72.50
2017-10-15T22:26:56.889Z,72.50
2017-10-15T22:29:23.293Z,72.90
2017-10-15T22:31:51.333Z,73.00
2017-10-15T22:34:18.299Z,73.00
2017-10-15T22:36:46.223Z,72.70
2017-10-15T22:39:13.393Z,72.60
2017-10-15T22:41:39.838Z,72.60
2017-10-15T22:44:06.532Z,72.70
2017-10-15T22:46:33.548Z,72.40
2017-10-15T22:48:59.752Z,72.50
2017-10-15T22:51:26.478Z,72.90
2017-10-15T22:53:53.696Z,72.80
2017-10-15T22:56:20.905Z,72.60
2017-10-15T22:58:47.988Z,75.40
2017-10-15T23:01:14.935Z,75.40
2017-10-15T23:03:42.266Z,76.60
2017-10-15T23:06:09.493Z,76.50
2017-10-15T23:08:37.145Z,77.40
2017-10-15T23:11:03.884Z,77.40
2017-10-15T23:13:30.506Z,75.50
2017-10-15T23:15:57.519Z,74.70
2017-10-15T23:18:23.731Z,74.60
2017-10-15T23:20:49.981Z,74.20
2017-10-15T23:23:16.526Z,74.20
2017-10-15T23:25:43.788Z,74.30
2017-10-15T23:28:09.978Z,74.10
2017-10-15T23:30:36.180Z,74.20
2017-10-15T23:33:03.124Z,74.10
2017-10-15T23:35:30.081Z,74.40
2017-10-15T23:37:57.124Z,74.30
2017-10-15T23:40:24.067Z,74.10
2017-10-15T23:42:51.317Z,74.10
2017-10-15T23:45:18.576Z,73.60
2017-10-15T23:47:46.783Z,73.60
2017-10-15T23:50:13.409Z,73.60
2017-10-15T23:52:40.447Z,73.70
2017-10-15T23:55:06.635Z,73.60
2017-10-15T23:57:33.073Z,73.40
2017-10-15T23:59:59.541Z,73.70
